sensor_id;sensor_type;location;lat;lon;timestamp;pressure;altitude;pressure_sealevel;temperature;humidity
53619;BME280;68717;53.040;18.488;2024-02-23T00:00:07;98791.03;;;9.60;100.00
53619;BME280;68717;53.040;18.488;2024-02-23T00:00:21;98798.72;;;9.63;100.00
53619;BME280;68717;53.040;18.488;2024-02-23T00:00:54;98787.16;;;9.71;100.00
53619;BME280;68717;53.040;18.488;2024-02-23T00:01:27;98784.81;;;9.68;100.00
53619;BME280;68717;53.040;18.488;2024-02-23T00:01:41;98784.16;;;9.66;100.00
53619;BME280;68717;53.040;18.488;2024-02-23T00:01:54;98793.84;;;9.67;100.00
53619;BME280;68717;53.040;18.488;2024-02-23T00:02:07;98791.34;;;9.65;100.00
53619;BME280;68717;53.040;18.488;2024-02-23T00:02:21;98782.50;;;9.65;100.00
53619;BME280;68717;53.040;18.488;2024-02-23T00:02:35;98786.34;;;9.62;100.00
53619;BME280;68717;53.040;18.488;2024-02-23T00:02:48;98780.16;;;9.62;100.00
53619;BME280;68717;53.040;18.488;2024-02-23T00:03:01;98790.03;;;9.61;100.00
53619;BME280;68717;53.040;18.488;2024-02-23T00:03:14;98777.69;;;9.60;100.00
53619;BME280;68717;53.040;18.488;2024-02-23T00:03:30;98776.81;;;9.60;100.00
53619;BME280;68717;53.040;18.488;2024-02-23T00:03:43;98785.88;;;9.59;100.00
53619;BME280;68717;53.040;18.488;2024-02-23T00:03:56;98778.66;;;9.59;100.00
53619;BME280;68717;53.040;18.488;2024-02-23T00:04:11;98783.03;;;9.60;100.00
53619;BME280;68717;53.040;18.488;2024-02-23T00:04:25;98782.16;;;9.60;100.00
53619;BME280;68717;53.040;18.488;2024-02-23T00:04:39;98780.50;;;9.59;100.00
53619;BME280;68717;53.040;18.488;2024-02-23T00:04:52;98773.16;;;9.61;100.00
53619;BME280;68717;53.040;18.488;2024-02-23T00:05:06;98783.03;;;9.60;100.00
53619;BME280;68717;53.040;18.488;2024-02-23T00:05:19;98781.50;;;9.58;100.00
53619;BME280;68717;53.040;18.488;2024-02-23T00:05:32;98781.69;;;9.56;100.00
53619;BME280;68717;53.040;18.488;2024-02-23T00:05:45;98780.00;;;9.55;100.00
53619;BME280;68717;53.040;18.488;2024-02-23T00:05:59;98781.69;;;9.56;100.00
53619;BME280;68717;53.040;18.488;2024-02-23T00:06:12;98785.38;;;9.55;100.00
53619;BME280;68717;53.040;18.488;2024-02-23T00:06:25;98780.88;;;9.56;100.00
53619;BME280;68717;53.040;18.488;2024-02-23T00:06:41;98776.31;;;9.64;100.00
53619;BME280;68717;53.040;18.488;2024-02-23T00:06:54;98777.97;;;9.65;100.00
53619;BME280;68717;53.040;18.488;2024-02-23T00:07:07;98776.94;;;9.67;100.00
53619;BME280;68717;53.040;18.488;2024-02-23T00:07:20;98782.31;;;9.67;100.00
53619;BME280;68717;53.040;18.488;2024-02-23T00:07:33;98787.66;;;9.67;100.00
53619;BME280;68717;53.040;18.488;2024-02-23T00:07:47;98780.41;;;9.75;100.00
53619;BME280;68717;53.040;18.488;2024-02-23T00:08:00;98783.94;;;9.76;100.00
53619;BME280;68717;53.040;18.488;2024-02-23T00:08:13;98780.78;;;9.72;100.00
53619;BME280;68717;53.040;18.488;2024-02-23T00:08:26;98778.28;;;9.71;100.00
53619;BME280;68717;53.040;18.488;2024-02-23T00:08:40;98779.47;;;9.68;100.00
53619;BME280;68717;53.040;18.488;2024-02-23T00:08:54;98784.97;;;9.67;100.00
53619;BME280;68717;53.040;18.488;2024-02-23T00:09:10;98784.34;;;9.64;100.00
53619;BME280;68717;53.040;18.488;2024-02-23T00:09:23;98789.03;;;9.62;100.00
53619;BME280;68717;53.040;18.488;2024-02-23T00:09:37;98782.16;;;9.60;100.00
53619;BME280;68717;53.040;18.488;2024-02-23T00:09:50;98780.50;;;9.59;100.00
53619;BME280;68717;53.040;18.488;2024-02-23T00:10:05;98787.34;;;9.61;100.00
53619;BME280;68717;53.040;18.488;2024-02-23T00:10:18;98789.38;;;9.59;100.00
53619;BME280;68717;53.040;18.488;2024-02-23T00:10:31;98788.38;;;9.60;100.00
53619;BME280;68717;53.040;18.488;2024-02-23T00:10:45;98788.19;;;9.62;100.00
53619;BME280;68717;53.040;18.488;2024-02-23T00:10:59;98786.69;;;9.59;100.00
53619;BME280;68717;53.040;18.488;2024-02-23T00:11:15;98785.03;;;9.58;100.00
53619;BME280;68717;53.040;18.488;2024-02-23T00:11:28;98784.19;;;9.58;100.00
53619;BME280;68717;53.040;18.488;2024-02-23T00:11:42;98784.38;;;9.56;100.00
53619;BME280;68717;53.040;18.488;2024-02-23T00:11:57;98784.53;;;9.55;100.00
53619;BME280;68717;53.040;18.488;2024-02-23T00:12:11;98783.72;;;9.54;100.00
53619;BME280;68717;53.040;18.488;2024-02-23T00:12:24;98783.06;;;9.52;100.00
53619;BME280;68717;53.040;18.488;2024-02-23T00:12:39;98785.72;;;9.52;100.00
53619;BME280;68717;53.040;18.488;2024-02-23T00:12:52;98787.06;;;9.56;100.00
53619;BME280;68717;53.040;18.488;2024-02-23T00:13:05;98784.69;;;9.61;100.00
53619;BME280;68717;53.040;18.488;2024-02-23T00:13:18;98782.13;;;9.68;100.00
53619;BME280;68717;53.040;18.488;2024-02-23T00:13:31;98791.19;;;9.67;100.00
53619;BME280;68717;53.040;18.488;2024-02-23T00:13:44;98787.66;;;9.67;100.00
53619;BME280;68717;53.040;18.488;2024-02-23T00:13:58;98790.53;;;9.65;100.00
53619;BME280;68717;53.040;18.488;2024-02-23T00:14:12;98789.34;;;9.68;100.00
53619;BME280;68717;53.040;18.488;2024-02-23T00:14:26;98791.84;;;9.69;100.00
53619;BME280;68717;53.040;18.488;2024-02-23T00:14:39;98786.66;;;9.68;100.00
53619;BME280;68717;53.040;18.488;2024-02-23T00:14:52;98784.81;;;9.68;100.00
53619;BME280;68717;53.040;18.488;2024-02-23T00:15:07;98788.63;;;9.74;100.00
53619;BME280;68717;53.040;18.488;2024-02-23T00:15:20;98780.94;;;9.71;100.00
53619;BME280;68717;53.040;18.488;2024-02-23T00:15:33;98787.31;;;9.70;100.00
53619;BME280;68717;53.040;18.488;2024-02-23T00:15:46;98783.97;;;9.68;100.00
53619;BME280;68717;53.040;18.488;2024-02-23T00:15:59;98780.66;;;9.65;100.00
53619;BME280;68717;53.040;18.488;2024-02-23T00:16:13;98781.66;;;9.64;100.00
53619;BME280;68717;53.040;18.488;2024-02-23T00:16:27;98783.50;;;9.64;100.00
53619;BME280;68717;53.040;18.488;2024-02-23T00:16:42;98781.00;;;9.62;100.00
53619;BME280;68717;53.040;18.488;2024-02-23T00:16:55;98785.69;;;9.60;100.00
53619;BME280;68717;53.040;18.488;2024-02-23T00:17:10;98780.50;;;9.59;100.00
53619;BME280;68717;53.040;18.488;2024-02-23T00:17:24;98785.03;;;9.58;100.00
53619;BME280;68717;53.040;18.488;2024-02-23T00:17:38;98778.00;;;9.57;100.00
53619;BME280;68717;53.040;18.488;2024-02-23T00:17:52;98776.34;;;9.56;100.00
53619;BME280;68717;53.040;18.488;2024-02-23T00:18:06;98779.19;;;9.55;100.00
53619;BME280;68717;53.040;18.488;2024-02-23T00:18:19;98782.03;;;9.53;100.00
53619;BME280;68717;53.040;18.488;2024-02-23T00:18:33;98779.34;;;9.53;100.00
53619;BME280;68717;53.040;18.488;2024-02-23T00:18:46;98785.72;;;9.52;100.00
53619;BME280;68717;53.040;18.488;2024-02-23T00:18:59;98783.72;;;9.54;100.00
53619;BME280;68717;53.040;18.488;2024-02-23T00:19:14;98776.81;;;9.60;100.00
53619;BME280;68717;53.040;18.488;2024-02-23T00:19:31;98789.38;;;9.59;100.00
53619;BME280;68717;53.040;18.488;2024-02-23T00:19:45;98785.03;;;9.58;100.00
53619;BME280;68717;53.040;18.488;2024-02-23T00:19:58;98781.19;;;9.61;100.00
53619;BME280;68717;53.040;18.488;2024-02-23T00:20:12;98777.69;;;9.60;100.00
53619;BME280;68717;53.040;18.488;2024-02-23T00:20:28;98776.00;;;9.59;100.00
53619;BME280;68717;53.040;18.488;2024-02-23T00:20:41;98783.69;;;9.62;100.00
53619;BME280;68717;53.040;18.488;2024-02-23T00:20:54;98783.63;;;9.71;100.00
53619;BME280;68717;53.040;18.488;2024-02-23T00:21:07;98792.66;;;9.70;100.00
53619;BME280;68717;53.040;18.488;2024-02-23T00:21:20;98786.81;;;9.66;100.00
53619;BME280;68717;53.040;18.488;2024-02-23T00:21:33;98784.34;;;9.64;100.00
53619;BME280;68717;53.040;18.488;2024-02-23T00:21:47;98784.50;;;9.63;100.00
53619;BME280;68717;53.040;18.488;2024-02-23T00:22:02;98782.00;;;9.61;100.00
53619;BME280;68717;53.040;18.488;2024-02-23T00:22:20;98784.84;;;9.60;100.00
53619;BME280;68717;53.040;18.488;2024-02-23T00:22:33;98786.34;;;9.62;100.00
53619;BME280;68717;53.040;18.488;2024-02-23T00:22:46;98776.13;;;9.66;100.00
53619;BME280;68717;53.040;18.488;2024-02-23T00:22:59;98784.16;;;9.66;100.00
53619;BME280;68717;53.040;18.488;2024-02-23T00:23:13;98784.16;;;9.66;100.00
53619;BME280;68717;53.040;18.488;2024-02-23T00:23:26;98782.97;;;9.69;100.00
53619;BME280;68717;53.040;18.488;2024-02-23T00:23:41;98782.78;;;9.70;100.00
53619;BME280;68717;53.040;18.488;2024-02-23T00:23:54;98786.50;;;9.69;100.00
53619;BME280;68717;53.040;18.488;2024-02-23T00:24:08;98778.47;;;9.69;100.00
53619;BME280;68717;53.040;18.488;2024-02-23T00:24:22;98777.28;;;9.72;100.00
53619;BME280;68717;53.040;18.488;2024-02-23T00:24:35;98789.84;;;9.71;100.00
53619;BME280;68717;53.040;18.488;2024-02-23T00:24:49;98778.28;;;9.71;100.00
53619;BME280;68717;53.040;18.488;2024-02-23T00:25:03;98782.63;;;9.72;100.00
53619;BME280;68717;53.040;18.488;2024-02-23T00:25:16;98775.59;;;9.71;100.00
53619;BME280;68717;53.040;18.488;2024-02-23T00:25:29;98787.47;;;9.68;100.00
53619;BME280;68717;53.040;18.488;2024-02-23T00:25:42;98776.94;;;9.67;100.00
53619;BME280;68717;53.040;18.488;2024-02-23T00:25:56;98774.47;;;9.65;100.00
53619;BME280;68717;53.040;18.488;2024-02-23T00:26:10;98784.16;;;9.66;100.00
53619;BME280;68717;53.040;18.488;2024-02-23T00:26:23;98784.34;;;9.64;100.00
53619;BME280;68717;53.040;18.488;2024-02-23T00:26:36;98776.13;;;9.66;100.00
53619;BME280;68717;53.040;18.488;2024-02-23T00:26:49;98780.28;;;9.69;100.00
53619;BME280;68717;53.040;18.488;2024-02-23T00:27:04;98781.44;;;9.74;100.00
53619;BME280;68717;53.040;18.488;2024-02-23T00:27:17;98781.59;;;9.73;100.00
53619;BME280;68717;53.040;18.488;2024-02-23T00:27:30;98779.94;;;9.72;100.00
53619;BME280;68717;53.040;18.488;2024-02-23T00:27:44;98779.13;;;9.71;100.00
53619;BME280;68717;53.040;18.488;2024-02-23T00:27:57;98783.97;;;9.68;100.00
53619;BME280;68717;53.040;18.488;2024-02-23T00:28:10;98779.63;;;9.67;100.00
53619;BME280;68717;53.040;18.488;2024-02-23T00:28:24;98776.94;;;9.67;100.00
53619;BME280;68717;53.040;18.488;2024-02-23T00:28:37;98773.66;;;9.64;100.00
53619;BME280;68717;53.040;18.488;2024-02-23T00:28:51;98783.50;;;9.64;100.00
53619;BME280;68717;53.040;18.488;2024-02-23T00:29:04;98778.34;;;9.62;100.00
53619;BME280;68717;53.040;18.488;2024-02-23T00:29:17;98778.50;;;9.61;100.00
53619;BME280;68717;53.040;18.488;2024-02-23T00:29:30;98781.34;;;9.59;100.00
53619;BME280;68717;53.040;18.488;2024-02-23T00:29:43;98771.44;;;9.68;100.00
53619;BME280;68717;53.040;18.488;2024-02-23T00:29:56;98778.63;;;9.68;100.00
53619;BME280;68717;53.040;18.488;2024-02-23T00:30:10;98776.13;;;9.66;100.00
53619;BME280;68717;53.040;18.488;2024-02-23T00:30:24;98775.47;;;9.64;100.00
53619;BME280;68717;53.040;18.488;2024-02-23T00:30:38;98779.00;;;9.64;100.00
53619;BME280;68717;53.040;18.488;2024-02-23T00:30:52;98772.97;;;9.62;100.00
53619;BME280;68717;53.040;18.488;2024-02-23T00:31:05;98772.97;;;9.62;100.00
53619;BME280;68717;53.040;18.488;2024-02-23T00:31:21;98771.31;;;9.61;100.00
53619;BME280;68717;53.040;18.488;2024-02-23T00:31:34;98777.69;;;9.60;100.00
53619;BME280;68717;53.040;18.488;2024-02-23T00:31:47;98773.16;;;9.61;100.00
53619;BME280;68717;53.040;18.488;2024-02-23T00:32:01;98770.63;;;9.59;100.00
53619;BME280;68717;53.040;18.488;2024-02-23T00:32:14;98776.00;;;9.59;100.00
53619;BME280;68717;53.040;18.488;2024-02-23T00:32:28;98774.34;;;9.58;100.00
53619;BME280;68717;53.040;18.488;2024-02-23T00:32:42;98775.31;;;9.57;100.00
53619;BME280;68717;53.040;18.488;2024-02-23T00:32:55;98768.31;;;9.56;100.00
53619;BME280;68717;53.040;18.488;2024-02-23T00:33:08;98776.34;;;9.56;100.00
53619;BME280;68717;53.040;18.488;2024-02-23T00:33:22;98769.31;;;9.55;100.00
53619;BME280;68717;53.040;18.488;2024-02-23T00:33:36;98774.66;;;9.55;100.00
53619;BME280;68717;53.040;18.488;2024-02-23T00:33:50;98771.00;;;9.56;100.00
53619;BME280;68717;53.040;18.488;2024-02-23T00:34:03;98775.81;;;9.61;100.00
53619;BME280;68717;53.040;18.488;2024-02-23T00:34:18;98772.31;;;9.60;100.00
53619;BME280;68717;53.040;18.488;2024-02-23T00:34:31;98770.31;;;9.62;100.00
53619;BME280;68717;53.040;18.488;2024-02-23T00:34:45;98770.97;;;9.64;100.00
53619;BME280;68717;53.040;18.488;2024-02-23T00:34:59;98773.66;;;9.64;100.00
53619;BME280;68717;53.040;18.488;2024-02-23T00:35:12;98770.97;;;9.64;100.00
53619;BME280;68717;53.040;18.488;2024-02-23T00:35:26;98765.63;;;9.64;100.00
53619;BME280;68717;53.040;18.488;2024-02-23T00:35:39;98763.09;;;9.63;100.00
53619;BME280;68717;53.040;18.488;2024-02-23T00:35:52;98772.97;;;9.62;100.00
53619;BME280;68717;53.040;18.488;2024-02-23T00:36:06;98778.50;;;9.61;100.00
53619;BME280;68717;53.040;18.488;2024-02-23T00:36:19;98772.31;;;9.60;100.00
53619;BME280;68717;53.040;18.488;2024-02-23T00:36:32;98770.63;;;9.59;100.00
53619;BME280;68717;53.040;18.488;2024-02-23T00:36:46;98769.00;;;9.58;100.00
53619;BME280;68717;53.040;18.488;2024-02-23T00:36:59;98772.66;;;9.57;100.00
53619;BME280;68717;53.040;18.488;2024-02-23T00:37:13;98773.47;;;9.58;100.00
53619;BME280;68717;53.040;18.488;2024-02-23T00:37:26;98777.19;;;9.57;100.00
53619;BME280;68717;53.040;18.488;2024-02-23T00:37:39;98769.44;;;9.62;100.00
53619;BME280;68717;53.040;18.488;2024-02-23T00:37:53;98781.00;;;9.62;100.00
53619;BME280;68717;53.040;18.488;2024-02-23T00:38:06;98765.09;;;9.69;100.00
53619;BME280;68717;53.040;18.488;2024-02-23T00:38:20;98775.44;;;9.72;100.00
53619;BME280;68717;53.040;18.488;2024-02-23T00:38:34;98767.22;;;9.74;100.00
53619;BME280;68717;53.040;18.488;2024-02-23T00:38:47;98771.94;;;9.72;100.00
53619;BME280;68717;53.040;18.488;2024-02-23T00:39:00;98769.41;;;9.70;100.00
53619;BME280;68717;53.040;18.488;2024-02-23T00:39:14;98776.63;;;9.70;100.00
53619;BME280;68717;53.040;18.488;2024-02-23T00:39:28;98773.28;;;9.68;100.00
53619;BME280;68717;53.040;18.488;2024-02-23T00:39:41;98773.28;;;9.68;100.00
53619;BME280;68717;53.040;18.488;2024-02-23T00:39:56;98769.94;;;9.65;100.00
53619;BME280;68717;53.040;18.488;2024-02-23T00:40:10;98770.78;;;9.66;100.00
53619;BME280;68717;53.040;18.488;2024-02-23T00:40:25;98772.78;;;9.64;100.00
53619;BME280;68717;53.040;18.488;2024-02-23T00:40:38;98774.63;;;9.63;100.00
53619;BME280;68717;53.040;18.488;2024-02-23T00:40:51;98775.66;;;9.62;100.00
53619;BME280;68717;53.040;18.488;2024-02-23T00:41:04;98775.66;;;9.62;100.00
53619;BME280;68717;53.040;18.488;2024-02-23T00:41:17;98777.31;;;9.63;100.00
53619;BME280;68717;53.040;18.488;2024-02-23T00:41:31;98772.25;;;9.69;100.00
53619;BME280;68717;53.040;18.488;2024-02-23T00:41:44;98770.44;;;9.69;100.00
53619;BME280;68717;53.040;18.488;2024-02-23T00:41:57;98770.06;;;9.72;100.00
53619;BME280;68717;53.040;18.488;2024-02-23T00:42:11;98768.88;;;9.75;100.00
53619;BME280;68717;53.040;18.488;2024-02-23T00:42:25;98773.41;;;9.74;100.00
53619;BME280;68717;53.040;18.488;2024-02-23T00:42:38;98772.59;;;9.74;100.00
53619;BME280;68717;53.040;18.488;2024-02-23T00:42:51;98771.75;;;9.73;100.00
53619;BME280;68717;53.040;18.488;2024-02-23T00:43:05;98769.25;;;9.72;100.00
53619;BME280;68717;53.040;18.488;2024-02-23T00:43:19;98766.75;;;9.70;100.00
53619;BME280;68717;53.040;18.488;2024-02-23T00:43:37;98769.59;;;9.69;100.00
53619;BME280;68717;53.040;18.488;2024-02-23T00:43:51;98769.78;;;9.67;100.00
53619;BME280;68717;53.040;18.488;2024-02-23T00:44:04;98760.91;;;9.67;100.00
53619;BME280;68717;53.040;18.488;2024-02-23T00:44:18;98769.94;;;9.65;100.00
53619;BME280;68717;53.040;18.488;2024-02-23T00:44:32;98770.13;;;9.64;100.00
53619;BME280;68717;53.040;18.488;2024-02-23T00:44:46;98765.25;;;9.68;100.00
53619;BME280;68717;53.040;18.488;2024-02-23T00:44:59;98771.88;;;9.80;100.00
53619;BME280;68717;53.040;18.488;2024-02-23T00:45:15;98766.53;;;9.80;100.00
53619;BME280;68717;53.040;18.488;2024-02-23T00:45:28;98763.88;;;9.80;100.00
53619;BME280;68717;53.040;18.488;2024-02-23T00:45:41;98767.19;;;9.82;100.00
53619;BME280;68717;53.040;18.488;2024-02-23T00:45:55;98767.38;;;9.80;100.00
53619;BME280;68717;53.040;18.488;2024-02-23T00:46:09;98761.53;;;9.77;100.00
53619;BME280;68717;53.040;18.488;2024-02-23T00:46:22;98768.88;;;9.75;100.00
53619;BME280;68717;53.040;18.488;2024-02-23T00:46:35;98759.88;;;9.76;100.00
53619;BME280;68717;53.040;18.488;2024-02-23T00:46:48;98757.66;;;9.79;100.00
53619;BME280;68717;53.040;18.488;2024-02-23T00:47:01;98758.50;;;9.80;100.00
53619;BME280;68717;53.040;18.488;2024-02-23T00:47:16;98766.72;;;9.78;100.00
53619;BME280;68717;53.040;18.488;2024-02-23T00:47:31;98768.56;;;9.78;100.00
53619;BME280;68717;53.040;18.488;2024-02-23T00:47:45;98771.22;;;9.78;100.00
53619;BME280;68717;53.040;18.488;2024-02-23T00:47:59;98762.72;;;9.74;100.00
53619;BME280;68717;53.040;18.488;2024-02-23T00:48:13;98760.19;;;9.73;100.00
53619;BME280;68717;53.040;18.488;2024-02-23T00:48:26;98765.75;;;9.71;100.00
53619;BME280;68717;53.040;18.488;2024-02-23T00:48:39;98765.91;;;9.70;100.00
53619;BME280;68717;53.040;18.488;2024-02-23T00:48:53;98761.56;;;9.69;100.00
53619;BME280;68717;53.040;18.488;2024-02-23T00:49:07;98763.72;;;9.73;100.00
53619;BME280;68717;53.040;18.488;2024-02-23T00:49:21;98779.06;;;9.79;100.00
53619;BME280;68717;53.040;18.488;2024-02-23T00:49:35;98763.50;;;9.83;100.00
53619;BME280;68717;53.040;18.488;2024-02-23T00:49:49;98762.00;;;9.80;100.00
53619;BME280;68717;53.040;18.488;2024-02-23T00:50:02;98769.22;;;9.80;100.00
53619;BME280;68717;53.040;18.488;2024-02-23T00:50:18;98766.72;;;9.78;100.00
53619;BME280;68717;53.040;18.488;2024-02-23T00:50:32;98765.81;;;9.86;100.00
53619;BME280;68717;53.040;18.488;2024-02-23T00:50:45;98764.16;;;9.85;100.00
53619;BME280;68717;53.040;18.488;2024-02-23T00:50:58;98766.00;;;9.84;100.00
53619;BME280;68717;53.040;18.488;2024-02-23T00:51:11;98769.66;;;9.83;100.00
53619;BME280;68717;53.040;18.488;2024-02-23T00:51:24;98762.84;;;9.81;100.00
53619;BME280;68717;53.040;18.488;2024-02-23T00:51:37;98769.88;;;9.82;100.00
53619;BME280;68717;53.040;18.488;2024-02-23T00:51:51;98771.81;;;9.88;100.00
53619;BME280;68717;53.040;18.488;2024-02-23T00:52:05;98765.81;;;9.86;100.00
53619;BME280;68717;53.040;18.488;2024-02-23T00:52:18;98767.00;;;9.83;100.00
53619;BME280;68717;53.040;18.488;2024-02-23T00:52:31;98765.50;;;9.81;100.00
53619;BME280;68717;53.040;18.488;2024-02-23T00:52:45;98764.84;;;9.79;100.00
53619;BME280;68717;53.040;18.488;2024-02-23T00:52:58;98765.88;;;9.78;100.00
53619;BME280;68717;53.040;18.488;2024-02-23T00:53:11;98769.53;;;9.77;100.00
53619;BME280;68717;53.040;18.488;2024-02-23T00:53:24;98772.59;;;9.74;100.00
53619;BME280;68717;53.040;18.488;2024-02-23T00:53:37;98769.25;;;9.72;100.00
53619;BME280;68717;53.040;18.488;2024-02-23T00:53:52;98769.25;;;9.72;100.00
53619;BME280;68717;53.040;18.488;2024-02-23T00:54:05;98774.44;;;9.73;100.00
53619;BME280;68717;53.040;18.488;2024-02-23T00:54:20;98770.75;;;9.74;100.00
53619;BME280;68717;53.040;18.488;2024-02-23T00:54:33;98764.72;;;9.72;100.00
53619;BME280;68717;53.040;18.488;2024-02-23T00:54:46;98768.22;;;9.73;100.00
53619;BME280;68717;53.040;18.488;2024-02-23T00:55:00;98771.22;;;9.78;100.00
53619;BME280;68717;53.040;18.488;2024-02-23T00:55:13;98767.91;;;9.76;100.00
53619;BME280;68717;53.040;18.488;2024-02-23T00:55:26;98767.03;;;9.75;100.00
53619;BME280;68717;53.040;18.488;2024-02-23T00:55:39;98768.06;;;9.74;100.00
53619;BME280;68717;53.040;18.488;2024-02-23T00:55:54;98763.53;;;9.75;100.00
53619;BME280;68717;53.040;18.488;2024-02-23T00:56:07;98764.56;;;9.74;100.00
53619;BME280;68717;53.040;18.488;2024-02-23T00:56:20;98759.88;;;9.76;100.00
53619;BME280;68717;53.040;18.488;2024-02-23T00:56:41;98766.22;;;9.75;100.00
53619;BME280;68717;53.040;18.488;2024-02-23T00:57:03;98761.22;;;9.72;100.00
53619;BME280;68717;53.040;18.488;2024-02-23T00:57:16;98758.19;;;9.75;100.00
53619;BME280;68717;53.040;18.488;2024-02-23T00:57:31;98763.53;;;9.75;100.00
53619;BME280;68717;53.040;18.488;2024-02-23T00:57:46;98764.84;;;9.79;100.00
53619;BME280;68717;53.040;18.488;2024-02-23T00:57:59;98767.69;;;9.77;100.00
53619;BME280;68717;53.040;18.488;2024-02-23T00:58:12;98759.88;;;9.76;100.00
53619;BME280;68717;53.040;18.488;2024-02-23T00:58:25;98766.22;;;9.75;100.00
53619;BME280;68717;53.040;18.488;2024-02-23T00:58:39;98761.88;;;9.74;100.00
53619;BME280;68717;53.040;18.488;2024-02-23T00:58:52;98760.19;;;9.73;100.00
53619;BME280;68717;53.040;18.488;2024-02-23T00:59:05;98756.88;;;9.71;100.00
53619;BME280;68717;53.040;18.488;2024-02-23T00:59:19;98762.22;;;9.71;100.00
53619;BME280;68717;53.040;18.488;2024-02-23T00:59:33;98759.75;;;9.69;100.00
53619;BME280;68717;53.040;18.488;2024-02-23T00:59:46;98761.56;;;9.69;100.00
53619;BME280;68717;53.040;18.488;2024-02-23T01:00:00;98759.91;;;9.68;100.00
53619;BME280;68717;53.040;18.488;2024-02-23T01:00:13;98760.72;;;9.68;100.00
53619;BME280;68717;53.040;18.488;2024-02-23T01:00:27;98756.56;;;9.65;100.00
53619;BME280;68717;53.040;18.488;2024-02-23T01:00:40;98764.59;;;9.65;100.00
53619;BME280;68717;53.040;18.488;2024-02-23T01:00:55;98757.59;;;9.64;100.00
53619;BME280;68717;53.040;18.488;2024-02-23T01:01:09;98756.19;;;9.69;100.00
53619;BME280;68717;53.040;18.488;2024-02-23T01:01:23;98763.25;;;9.70;100.00
53619;BME280;68717;53.040;18.488;2024-02-23T01:01:36;98755.22;;;9.70;100.00
53619;BME280;68717;53.040;18.488;2024-02-23T01:01:49;98760.56;;;9.70;100.00
53619;BME280;68717;53.040;18.488;2024-02-23T01:02:02;98760.56;;;9.70;100.00
53619;BME280;68717;53.040;18.488;2024-02-23T01:02:15;98756.19;;;9.69;100.00
53619;BME280;68717;53.040;18.488;2024-02-23T01:02:28;98767.94;;;9.68;100.00
53619;BME280;68717;53.040;18.488;2024-02-23T01:02:42;98762.59;;;9.68;100.00
53619;BME280;68717;53.040;18.488;2024-02-23T01:02:55;98766.25;;;9.67;100.00
53619;BME280;68717;53.040;18.488;2024-02-23T01:03:08;98760.91;;;9.67;100.00
53619;BME280;68717;53.040;18.488;2024-02-23T01:03:21;98759.25;;;9.65;100.00
53619;BME280;68717;53.040;18.488;2024-02-23T01:03:36;98763.78;;;9.65;100.00
53619;BME280;68717;53.040;18.488;2024-02-23T01:03:49;98762.94;;;9.64;100.00
53619;BME280;68717;53.040;18.488;2024-02-23T01:04:03;98760.91;;;9.67;100.00
53619;BME280;68717;53.040;18.488;2024-02-23T01:04:16;98758.06;;;9.68;100.00
53619;BME280;68717;53.040;18.488;2024-02-23T01:04:31;98758.06;;;9.68;100.00
53619;BME280;68717;53.040;18.488;2024-02-23T01:04:44;98759.91;;;9.68;100.00
53619;BME280;68717;53.040;18.488;2024-02-23T01:04:57;98761.22;;;9.72;100.00
53619;BME280;68717;53.040;18.488;2024-02-23T01:05:11;98763.19;;;9.78;100.00
53619;BME280;68717;53.040;18.488;2024-02-23T01:05:25;98758.19;;;9.75;100.00
53619;BME280;68717;53.040;18.488;2024-02-23T01:05:39;98757.34;;;9.74;100.00
53619;BME280;68717;53.040;18.488;2024-02-23T01:05:55;98760.19;;;9.73;100.00
53619;BME280;68717;53.040;18.488;2024-02-23T01:06:08;98758.56;;;9.72;100.00
53619;BME280;68717;53.040;18.488;2024-02-23T01:06:21;98756.03;;;9.70;100.00
53619;BME280;68717;53.040;18.488;2024-02-23T01:06:35;98760.56;;;9.70;100.00
53619;BME280;68717;53.040;18.488;2024-02-23T01:06:48;98753.53;;;9.69;100.00
53619;BME280;68717;53.040;18.488;2024-02-23T01:07:02;98751.88;;;9.68;100.00
53619;BME280;68717;53.040;18.488;2024-02-23T01:07:17;98755.88;;;9.72;100.00
53619;BME280;68717;53.040;18.488;2024-02-23T01:07:31;98755.22;;;9.70;100.00
53619;BME280;68717;53.040;18.488;2024-02-23T01:07:45;98765.91;;;9.70;100.00
53619;BME280;68717;53.040;18.488;2024-02-23T01:08:00;98749.19;;;9.68;100.00
53619;BME280;68717;53.040;18.488;2024-02-23T01:08:14;98751.88;;;9.68;100.00
53619;BME280;68717;53.040;18.488;2024-02-23T01:08:29;98759.38;;;9.72;100.00
53619;BME280;68717;53.040;18.488;2024-02-23T01:08:42;98749.81;;;9.78;100.00
53619;BME280;68717;53.040;18.488;2024-02-23T01:08:55;98754.31;;;9.77;100.00
53619;BME280;68717;53.040;18.488;2024-02-23T01:09:08;98752.84;;;9.75;100.00
53619;BME280;68717;53.040;18.488;2024-02-23T01:09:22;98747.69;;;9.73;100.00
53619;BME280;68717;53.040;18.488;2024-02-23T01:09:36;98751.34;;;9.72;100.00
53619;BME280;68717;53.040;18.488;2024-02-23T01:09:49;98751.34;;;9.72;100.00
53619;BME280;68717;53.040;18.488;2024-02-23T01:10:03;98746.16;;;9.71;100.00
53619;BME280;68717;53.040;18.488;2024-02-23T01:10:17;98748.50;;;9.74;100.00
53619;BME280;68717;53.040;18.488;2024-02-23T01:10:30;98754.31;;;9.77;100.00
53619;BME280;68717;53.040;18.488;2024-02-23T01:10:44;98750.16;;;9.75;100.00
53619;BME280;68717;53.040;18.488;2024-02-23T01:10:57;98742.13;;;9.75;100.00
53619;BME280;68717;53.040;18.488;2024-02-23T01:11:10;98741.47;;;9.73;100.00
53619;BME280;68717;53.040;18.488;2024-02-23T01:11:24;98743.16;;;9.74;100.00
53619;BME280;68717;53.040;18.488;2024-02-23T01:11:37;98744.63;;;9.76;100.00
53619;BME280;68717;53.040;18.488;2024-02-23T01:11:51;98743.81;;;9.76;100.00
53619;BME280;68717;53.040;18.488;2024-02-23T01:12:05;98740.94;;;9.77;100.00
53619;BME280;68717;53.040;18.488;2024-02-23T01:12:18;98742.94;;;9.75;100.00